Time;durP1;ratioP1;P1;durP2;ratioP2;P2;SDS_P1;SDS_P2;PMS_P1;PMS_P2;Temp;Humidity;BMP_temperature;BMP_pressure;BME280_temperature;BME280_humidity;BME280_pressure;Samples;Min_cycle;Max_cycle;Signal;HPM_P1;HPM_P2
2023/01/17 00:00:44;;;;;;;2.00;1.70;;;5.40;99.90;;;;;;6336982;22;20027;-82
2023/01/17 00:03:09;;;;;;;3.35;1.65;;;5.40;99.90;;;;;;6315731;22;20006;-82
2023/01/17 01:35:11;;;;;;;1.48;0.93;;;5.60;99.90;;;;;;6345269;22;20025;-85
2023/01/17 01:44:59;;;;;;;1.63;0.98;;;5.60;99.90;;;;;;6189449;23;20062;-86
2023/01/17 01:47:34;;;;;;;2.45;1.00;;;5.60;99.90;;;;;;6189414;23;20009;-83
2023/01/17 01:50:04;;;;;;;1.75;1.17;;;5.60;99.90;;;;;;6189188;23;20001;-83
2023/01/17 01:52:33;;;;;;;2.05;1.13;;;5.60;99.90;;;;;;6266360;22;20003;-83
2023/01/17 01:55:06;;;;;;;1.70;0.98;;;5.60;99.90;;;;;;6345185;22;20003;-83
2023/01/17 01:57:44;;;;;;;1.42;1.00;;;5.60;99.90;;;;;;6317627;22;20055;-85
2023/01/17 02:01:03;;;;;;;;;;;;;;;;;;;;;
2023/01/17 02:24:40;;;;;;;0.98;0.80;;;5.50;99.90;;;;;;6317762;22;20026;-81
2023/01/17 02:27:11;;;;;;;0.93;0.60;;;5.50;99.90;;;;;;6344479;22;20010;-81
2023/01/17 02:29:56;;;;;;;2.05;1.00;;;5.60;99.90;;;;;;6344624;22;20029;-81
2023/01/17 02:32:57;;;;;;;1.15;0.90;;;5.60;99.90;;;;;;6344573;22;20023;-80
2023/01/17 02:35:37;;;;;;;1.38;1.00;;;5.60;99.90;;;;;;6344050;22;19994;-80
2023/01/17 02:38:38;;;;;;;1.88;0.90;;;5.60;99.90;;;;;;6344731;22;20308;-80
2023/01/17 02:41:15;;;;;;;1.75;1.05;;;5.60;99.90;;;;;;6188226;23;20005;-81
2023/01/17 02:43:41;;;;;;;1.17;0.90;;;5.70;99.90;;;;;;6324208;22;20078;-80
2023/01/17 02:46:07;;;;;;;1.45;1.00;;;5.70;99.90;;;;;;6344665;22;19999;-80
2023/01/17 02:48:35;;;;;;;2.38;1.02;;;5.70;99.90;;;;;;6342728;22;20007;-84
2023/01/17 02:51:25;;;;;;;1.42;0.70;;;5.80;99.90;;;;;;6316612;22;20006;-83
2023/01/17 02:54:31;;;;;;;1.45;1.02;;;5.80;99.90;;;;;;6344508;22;19999;-84
2023/01/17 02:57:43;;;;;;;0.98;0.60;;;5.70;99.90;;;;;;6344651;22;19995;-83
2023/01/17 03:00:22;;;;;;;1.25;0.90;;;5.70;99.90;;;;;;6163615;23;20001;-82
2023/01/17 03:02:57;;;;;;;2.55;1.30;;;5.80;99.90;;;;;;6310031;22;20010;-83
2023/01/17 03:05:32;;;;;;;1.67;0.98;;;5.70;99.90;;;;;;6316952;22;19995;-82
2023/01/17 03:08:00;;;;;;;1.77;1.10;;;5.70;99.90;;;;;;6344514;22;20022;-82
2023/01/17 03:10:27;;;;;;;2.33;1.02;;;5.70;99.90;;;;;;6316424;22;20003;-82
2023/01/17 03:12:58;;;;;;;2.33;0.93;;;5.80;99.90;;;;;;6344427;22;20378;-84
2023/01/17 03:15:24;;;;;;;1.85;1.00;;;5.80;99.90;;;;;;6344209;22;20428;-82
2023/01/17 03:21:32;;;;;;;1.67;1.08;;;5.70;99.90;;;;;;6239408;23;20489;-84
2023/01/17 03:24:42;;;;;;;1.40;0.85;;;5.70;99.90;;;;;;6342584;22;20019;-84
2023/01/17 03:42:08;;;;;;;1.15;1.00;;;5.70;99.90;;;;;;5777393;24;20108;-84
2023/01/17 04:19:00;;;;;;;1.88;1.20;;;5.80;99.90;;;;;;6320816;22;20019;-82
2023/01/17 04:21:27;;;;;;;1.80;1.00;;;5.90;99.90;;;;;;6343896;22;20351;-81
2023/01/17 04:23:52;;;;;;;1.50;1.15;;;5.80;99.90;;;;;;6316482;22;20011;-81
2023/01/17 04:26:18;;;;;;;1.73;1.00;;;5.90;99.90;;;;;;6343904;22;20002;-81
2023/01/17 04:28:44;;;;;;;1.83;1.30;;;5.90;99.90;;;;;;6315618;22;19999;-81
2023/01/17 04:31:16;;;;;;;2.65;1.20;;;5.90;99.90;;;;;;6343757;22;19995;-82
2023/01/17 04:33:42;;;;;;;2.45;1.20;;;5.80;99.90;;;;;;6315781;22;20309;-81
2023/01/17 04:36:10;;;;;;;1.77;1.15;;;5.70;99.90;;;;;;6343463;22;20033;-82
2023/01/17 04:38:36;;;;;;;2.35;1.48;;;5.70;99.90;;;;;;6315878;22;20010;-82
2023/01/17 04:58:24;;;;;;;0.95;0.60;;;5.20;99.90;;;;;;6251410;22;20019;-83
2023/01/17 05:17:43;;;;;;;0.25;0.20;;;4.60;99.90;;;;;;6217242;23;20091;-88
2023/01/17 05:24:28;;;;;;;;;;;;;;;;;;;;;
2023/01/17 05:27:59;;;;;;;;;;;;;;;;;;;;;
2023/01/17 05:31:33;;;;;;;;;;;;;;;;;;;;;
2023/01/17 05:37:01;;;;;;;0.25;0.20;;;3.90;99.90;;;;;;6161531;23;20313;-84
2023/01/17 05:39:27;;;;;;;0.38;0.30;;;3.90;99.90;;;;;;6133017;23;20884;-84
2023/01/17 06:42:12;;;;;;;;;;;;;;;;;;;;;
2023/01/17 06:54:17;;;;;;;0.68;0.50;;;4.60;99.90;;;;;;6291409;22;20018;-82
2023/01/17 06:56:48;;;;;;;0.52;0.50;;;4.50;99.90;;;;;;6345060;22;19998;-83
2023/01/17 07:00:02;;;;;;;;;;;;;;;;;;;;;
2023/01/17 07:03:16;;;;;;;0.40;0.30;;;4.70;99.90;;;;;;6233396;22;20519;-83
2023/01/17 07:41:57;;;;;;;0.88;0.50;;;4.60;99.90;;;;;;6258798;22;20024;-83
2023/01/17 08:16:43;;;;;;;0.60;0.32;;;4.70;99.90;;;;;;6263208;22;20913;-82
2023/01/17 08:22:24;;;;;;;0.65;0.40;;;4.70;99.90;;;;;;6295397;22;20436;-86
2023/01/17 08:28:46;;;;;;;0.55;0.50;;;4.80;99.90;;;;;;6312090;22;20006;-84
2023/01/17 08:31:21;;;;;;;0.50;0.50;;;4.90;99.90;;;;;;6284472;22;20059;-90
2023/01/17 08:41:02;;;;;;;0.82;0.70;;;4.90;99.90;;;;;;6127911;23;20068;-84
2023/01/17 08:43:28;;;;;;;0.60;0.50;;;4.90;99.90;;;;;;6098546;23;20030;-71
2023/01/17 08:45:54;;;;;;;1.25;0.45;;;5.00;99.90;;;;;;6272966;22;19999;-71
2023/01/17 08:48:24;;;;;;;0.70;0.60;;;5.00;99.90;;;;;;6312060;22;19999;-71
2023/01/17 08:50:50;;;;;;;0.57;0.43;;;5.00;99.90;;;;;;6313149;22;19999;-70
2023/01/17 08:53:16;;;;;;;0.82;0.60;;;5.10;99.90;;;;;;6283996;22;20010;-70
2023/01/17 08:55:42;;;;;;;0.82;0.55;;;5.00;99.90;;;;;;6310159;22;20087;-70
2023/01/17 08:58:08;;;;;;;0.63;0.55;;;5.10;99.90;;;;;;6311210;22;20007;-70
2023/01/17 09:00:34;;;;;;;0.85;0.57;;;5.10;99.90;;;;;;6311858;22;20010;-70
2023/01/17 09:03:00;;;;;;;0.77;0.73;;;5.10;99.90;;;;;;6311402;22;20038;-70
2023/01/17 09:05:26;;;;;;;1.00;0.70;;;5.10;99.90;;;;;;6311425;22;19995;-71
2023/01/17 09:07:51;;;;;;;0.68;0.43;;;5.20;99.90;;;;;;6311811;22;20045;-71
2023/01/17 09:10:17;;;;;;;1.33;0.60;;;5.30;99.90;;;;;;6312357;22;20021;-72
2023/01/17 09:12:43;;;;;;;0.60;0.57;;;5.20;99.90;;;;;;6312317;22;20004;-72
2023/01/17 09:15:09;;;;;;;0.68;0.50;;;5.30;99.90;;;;;;6285373;22;20007;-72
2023/01/17 09:17:35;;;;;;;1.00;0.77;;;5.40;99.90;;;;;;6311295;22;20440;-73
2023/01/17 09:20:01;;;;;;;2.05;0.50;;;5.30;99.90;;;;;;6313357;22;20049;-74
2023/01/17 09:22:26;;;;;;;0.73;0.52;;;5.30;99.90;;;;;;6313136;22;20058;-71
2023/01/17 09:24:52;;;;;;;1.10;0.73;;;5.20;99.90;;;;;;6313502;22;20003;-72
2023/01/17 09:27:19;;;;;;;1.05;0.70;;;5.30;99.90;;;;;;6313316;22;20324;-72
2023/01/17 09:29:45;;;;;;;0.68;0.50;;;5.20;99.90;;;;;;6312246;22;20448;-72
2023/01/17 09:32:11;;;;;;;0.90;0.80;;;5.20;99.90;;;;;;6284129;22;20010;-72
2023/01/17 09:34:36;;;;;;;0.73;0.50;;;5.20;99.90;;;;;;6313611;22;20010;-70
2023/01/17 09:37:02;;;;;;;1.20;0.90;;;5.20;99.90;;;;;;6314253;22;19999;-72
2023/01/17 09:39:27;;;;;;;0.80;0.70;;;5.20;99.90;;;;;;6314257;22;20082;-73
2023/01/17 09:42:26;;;;;;;1.00;0.60;;;5.20;99.90;;;;;;6313945;22;20000;-68
2023/01/17 09:44:53;;;;;;;0.90;0.60;;;5.30;99.90;;;;;;6314108;22;20007;-68
2023/01/17 09:47:30;;;;;;;0.45;0.40;;;5.40;99.90;;;;;;6313643;22;20068;-67
2023/01/17 09:50:07;;;;;;;1.17;0.57;;;5.40;99.90;;;;;;6287091;22;19999;-72
2023/01/17 09:52:33;;;;;;;0.90;0.60;;;5.40;99.90;;;;;;6313765;22;20491;-74
2023/01/17 09:54:58;;;;;;;1.05;0.65;;;5.40;99.90;;;;;;6314251;22;20064;-72
2023/01/17 09:57:45;;;;;;;2.13;0.90;;;5.50;99.90;;;;;;6313997;22;20061;-70
2023/01/17 10:00:30;;;;;;;0.80;0.80;;;5.50;99.90;;;;;;6314110;22;20003;-74
2023/01/17 10:03:04;;;;;;;1.00;0.55;;;5.50;99.90;;;;;;6286003;22;20003;-71
2023/01/17 10:06:08;;;;;;;0.88;0.70;;;5.50;99.90;;;;;;6314072;22;19999;-72
2023/01/17 10:08:36;;;;;;;1.00;0.73;;;5.50;99.90;;;;;;6285598;22;19995;-74
2023/01/17 10:11:38;;;;;;;1.05;0.70;;;5.40;99.90;;;;;;6313767;22;20229;-69
2023/01/17 10:14:16;;;;;;;1.00;0.80;;;5.50;99.90;;;;;;6313797;22;19999;-68
2023/01/17 10:17:20;;;;;;;0.70;0.60;;;5.50;99.90;;;;;;6311660;22;20013;-72
2023/01/17 10:20:03;;;;;;;0.90;0.70;;;5.60;99.90;;;;;;6312348;22;20010;-69
2023/01/17 10:22:48;;;;;;;1.50;0.80;;;5.70;99.90;;;;;;6311453;22;20084;-72
2023/01/17 10:25:14;;;;;;;1.15;0.73;;;5.70;99.90;;;;;;6283513;22;20133;-73
2023/01/17 10:27:58;;;;;;;1.50;0.90;;;5.80;99.90;;;;;;6284549;22;20346;-71
2023/01/17 10:30:47;;;;;;;1.02;0.82;;;5.80;99.90;;;;;;6313793;22;20007;-75
2023/01/17 10:33:19;;;;;;;1.00;0.80;;;5.80;99.90;;;;;;6313283;22;20003;-73
2023/01/17 10:35:53;;;;;;;1.98;1.00;;;5.90;99.90;;;;;;6286210;22;20038;-75
2023/01/17 10:38:27;;;;;;;1.13;0.82;;;5.90;99.90;;;;;;6313900;22;20378;-73
2023/01/17 10:41:19;;;;;;;2.25;1.15;;;5.90;99.90;;;;;;6313568;22;20000;-73
2023/01/17 10:44:00;;;;;;;0.80;0.60;;;5.90;99.90;;;;;;6285818;22;20109;-73
2023/01/17 10:46:41;;;;;;;1.33;0.80;;;5.80;99.90;;;;;;6286089;22;20086;-71
2023/01/17 10:49:17;;;;;;;1.65;1.00;;;5.80;99.90;;;;;;6312985;22;19999;-72
2023/01/17 10:52:10;;;;;;;1.00;0.77;;;5.80;99.90;;;;;;6313462;22;19995;-72
2023/01/17 10:55:08;;;;;;;1.58;0.88;;;5.80;99.90;;;;;;6313171;22;20078;-72
2023/01/17 10:57:45;;;;;;;0.80;0.65;;;5.80;99.90;;;;;;6313367;22;20432;-72
2023/01/17 11:00:31;;;;;;;1.25;0.80;;;5.80;99.90;;;;;;6313480;22;20010;-71
2023/01/17 11:02:57;;;;;;;1.02;0.70;;;5.80;99.90;;;;;;6312283;22;20034;-72
2023/01/17 11:05:29;;;;;;;1.00;0.70;;;5.90;99.90;;;;;;6313064;22;20022;-73
2023/01/17 11:08:00;;;;;;;1.38;0.77;;;5.90;99.90;;;;;;6313269;22;20052;-74
2023/01/17 11:10:56;;;;;;;1.02;0.70;;;6.00;99.90;;;;;;6285846;22;20002;-68
2023/01/17 11:13:29;;;;;;;0.85;0.60;;;6.00;99.90;;;;;;6312824;22;20331;-68
2023/01/17 11:16:05;;;;;;;1.33;0.73;;;6.10;99.90;;;;;;6313096;22;20457;-68
2023/01/17 11:18:36;;;;;;;1.20;0.77;;;6.10;99.90;;;;;;6253078;22;20020;-68
2023/01/17 11:21:10;;;;;;;1.30;0.65;;;6.20;99.90;;;;;;6251445;23;20019;-67
2023/01/17 11:23:37;;;;;;;1.13;0.70;;;6.20;99.90;;;;;;6251398;23;20042;-67
2023/01/17 11:26:06;;;;;;;1.27;1.00;;;6.20;99.90;;;;;;6251452;23;19996;-67
2023/01/17 11:28:39;;;;;;;0.88;0.60;;;6.30;99.90;;;;;;6251350;23;20004;-68
2023/01/17 11:31:15;;;;;;;1.15;0.70;;;6.30;99.90;;;;;;6251588;23;20004;-68
2023/01/17 11:33:55;;;;;;;0.93;0.57;;;6.40;99.90;;;;;;6223926;23;20011;-68
2023/01/17 11:36:26;;;;;;;0.90;0.50;;;6.50;99.90;;;;;;6224187;23;20008;-72
2023/01/17 11:39:05;;;;;;;0.75;0.50;;;6.60;99.90;;;;;;6250937;23;20000;-69
2023/01/17 11:41:39;;;;;;;1.10;0.40;;;6.60;99.90;;;;;;6250943;23;20011;-70
2023/01/17 11:44:26;;;;;;;1.50;0.70;;;6.60;99.90;;;;;;6251180;23;20007;-72
2023/01/17 11:47:10;;;;;;;1.17;0.60;;;6.60;99.90;;;;;;6224261;23;20007;-70
2023/01/17 11:49:40;;;;;;;0.68;0.50;;;6.60;99.90;;;;;;6251231;23;20004;-72
2023/01/17 11:52:15;;;;;;;1.42;0.70;;;6.70;99.90;;;;;;6250512;23;20000;-70
2023/01/17 11:54:44;;;;;;;0.68;0.45;;;6.80;99.90;;;;;;6223731;23;20038;-73
2023/01/17 11:57:37;;;;;;;1.05;0.68;;;6.90;99.90;;;;;;6250187;23;20453;-73
2023/01/17 12:00:18;;;;;;;1.13;0.55;;;7.00;99.90;;;;;;6246852;23;20382;-74
2023/01/17 12:03:08;;;;;;;0.77;0.50;;;7.10;99.90;;;;;;6221676;23;20091;-75
2023/01/17 12:05:42;;;;;;;1.00;0.70;;;7.20;99.90;;;;;;6249392;23;20000;-75
2023/01/17 12:08:24;;;;;;;0.80;0.50;;;7.30;99.90;;;;;;6223613;23;20000;-77
2023/01/17 12:10:54;;;;;;;0.60;0.40;;;7.30;99.90;;;;;;6250490;23;20000;-77
2023/01/17 12:13:59;;;;;;;0.98;0.70;;;7.30;99.90;;;;;;6223968;23;20004;-75
2023/01/17 12:16:51;;;;;;;0.63;0.60;;;7.40;99.90;;;;;;6223777;22;20004;-75
2023/01/17 12:19:53;;;;;;;1.20;0.70;;;7.40;99.90;;;;;;6248220;23;20066;-74
2023/01/17 12:22:19;;;;;;;0.82;0.50;;;7.40;99.90;;;;;;6249018;23;20001;-75
2023/01/17 12:25:13;;;;;;;0.90;0.60;;;7.50;99.90;;;;;;6249877;23;20006;-74
2023/01/17 12:27:49;;;;;;;0.93;0.60;;;7.50;99.90;;;;;;6250500;23;20409;-75
2023/01/17 12:30:52;;;;;;;0.70;0.50;;;7.60;99.90;;;;;;6223921;23;20006;-75
2023/01/17 12:33:32;;;;;;;1.30;0.60;;;7.60;99.90;;;;;;6250567;23;20004;-74
2023/01/17 12:36:04;;;;;;;1.55;0.60;;;7.60;99.90;;;;;;6251066;23;20227;-75
2023/01/17 12:38:35;;;;;;;0.60;0.40;;;7.50;99.90;;;;;;6223901;23;20337;-74
2023/01/17 12:41:14;;;;;;;0.60;0.45;;;7.50;99.90;;;;;;6250879;23;20004;-75
2023/01/17 12:43:41;;;;;;;1.02;0.60;;;7.50;99.90;;;;;;6250785;23;20449;-74
2023/01/17 12:46:22;;;;;;;1.20;0.60;;;7.40;99.90;;;;;;6223901;23;20086;-76
2023/01/17 12:48:53;;;;;;;1.13;0.65;;;7.40;99.90;;;;;;6223284;23;20374;-77
2023/01/17 12:51:32;;;;;;;0.73;0.60;;;7.30;99.90;;;;;;6223590;23;20004;-77
2023/01/17 12:54:16;;;;;;;0.98;0.60;;;7.30;99.90;;;;;;6250702;23;20011;-76
2023/01/17 12:56:49;;;;;;;2.05;0.93;;;7.30;99.90;;;;;;6250984;23;20000;-77
2023/01/17 12:59:21;;;;;;;0.68;0.38;;;7.30;99.90;;;;;;6251156;23;20010;-77
2023/01/17 13:01:56;;;;;;;1.00;0.40;;;7.30;99.90;;;;;;6223734;23;20005;-76
2023/01/17 13:04:32;;;;;;;0.70;0.40;;;7.30;99.90;;;;;;6250471;23;20086;-77
2023/01/17 13:07:24;;;;;;;0.57;0.40;;;7.40;99.90;;;;;;6250941;23;20051;-76
2023/01/17 13:09:56;;;;;;;1.33;0.40;;;7.40;99.90;;;;;;6234602;23;20008;-74
2023/01/17 13:12:27;;;;;;;0.97;0.43;;;7.50;99.90;;;;;;6250844;23;20004;-77
2023/01/17 13:14:53;;;;;;;1.23;0.70;;;7.50;99.90;;;;;;6250951;23;20302;-77
2023/01/17 13:17:45;;;;;;;0.63;0.50;;;7.50;99.90;;;;;;6250211;22;20024;-77
2023/01/17 13:20:21;;;;;;;1.20;0.60;;;7.60;99.90;;;;;;6250794;23;20095;-77
2023/01/17 13:22:49;;;;;;;1.67;0.55;;;7.60;99.90;;;;;;6251122;23;20004;-76
2023/01/17 13:25:28;;;;;;;0.70;0.50;;;7.70;99.90;;;;;;6250893;23;20426;-77
2023/01/17 13:27:57;;;;;;;1.27;0.60;;;7.70;99.90;;;;;;6250982;23;19996;-77
2023/01/17 13:30:34;;;;;;;1.02;0.60;;;7.80;99.90;;;;;;6251138;23;20325;-76
2023/01/17 13:33:20;;;;;;;0.65;0.50;;;7.70;99.90;;;;;;6250521;23;20063;-76
2023/01/17 13:36:07;;;;;;;1.77;0.57;;;7.70;99.90;;;;;;6234435;23;20012;-74
2023/01/17 13:38:59;;;;;;;0.85;0.60;;;7.70;99.90;;;;;;6250727;23;20004;-77
2023/01/17 13:41:31;;;;;;;1.00;0.65;;;7.70;99.90;;;;;;6250555;23;20004;-76
2023/01/17 13:47:17;;;;;;;0.85;0.70;;;7.70;99.90;;;;;;6250670;23;20083;-74
2023/01/17 13:49:49;;;;;;;1.95;0.80;;;7.70;99.90;;;;;;6250625;23;20004;-75
2023/01/17 13:52:18;;;;;;;1.60;0.70;;;7.70;99.90;;;;;;6223550;23;20054;-76
2023/01/17 13:54:45;;;;;;;1.83;0.80;;;7.70;99.90;;;;;;6223591;23;20000;-74
2023/01/17 13:57:31;;;;;;;1.23;0.73;;;7.70;99.90;;;;;;6223721;23;20007;-75
2023/01/17 14:00:15;;;;;;;1.45;0.88;;;7.70;99.90;;;;;;6223492;23;20008;-75
2023/01/17 14:02:41;;;;;;;;;;;7.70;99.90;;;;;;6225554;23;20008;-75
2023/01/17 14:05:10;;;;;;;0.80;0.52;;;7.70;99.90;;;;;;6252629;23;19927;-75
2023/01/17 14:07:46;;;;;;;0.68;0.55;;;7.80;99.90;;;;;;6225501;23;20007;-75
2023/01/17 14:10:26;;;;;;;0.88;0.40;;;7.90;99.90;;;;;;6252442;23;20000;-76
2023/01/17 14:12:51;;;;;;;1.17;0.40;;;7.90;99.90;;;;;;6252589;23;20004;-75
2023/01/17 14:15:22;;;;;;;0.68;0.45;;;7.80;99.90;;;;;;6252335;23;20014;-74
2023/01/17 14:17:59;;;;;;;1.42;0.60;;;7.80;99.90;;;;;;6238373;22;20027;-76
2023/01/17 14:20:25;;;;;;;0.95;0.50;;;7.70;99.90;;;;;;6252474;22;20433;-75
2023/01/17 14:22:53;;;;;;;1.90;0.70;;;7.70;99.90;;;;;;6252507;22;20004;-74
2023/01/17 14:25:22;;;;;;;1.00;0.50;;;7.70;99.90;;;;;;6252131;22;20007;-75
2023/01/17 14:27:49;;;;;;;1.67;0.60;;;7.70;99.90;;;;;;6250435;23;20004;-74
2023/01/17 14:30:32;;;;;;;1.77;0.65;;;7.70;99.90;;;;;;6252125;22;20410;-75
2023/01/17 14:32:59;;;;;;;0.85;0.43;;;7.60;99.90;;;;;;6250120;23;20453;-75
2023/01/17 14:35:34;;;;;;;0.55;0.38;;;7.60;99.90;;;;;;6252294;22;20001;-75
2023/01/17 14:38:01;;;;;;;1.35;0.55;;;7.50;99.90;;;;;;6252093;22;20023;-75
2023/01/17 14:40:30;;;;;;;1.23;0.60;;;7.40;99.90;;;;;;6252213;22;20141;-75
2023/01/17 14:42:58;;;;;;;2.38;0.80;;;7.40;99.90;;;;;;6251793;22;20024;-75
2023/01/17 14:45:28;;;;;;;0.90;0.60;;;7.30;99.90;;;;;;6251927;22;20003;-75
2023/01/17 14:47:56;;;;;;;1.67;0.90;;;7.30;99.90;;;;;;6249842;23;20004;-76
2023/01/17 14:50:28;;;;;;;0.77;0.68;;;7.10;99.90;;;;;;6252226;22;20075;-75
2023/01/17 14:53:12;;;;;;;1.08;0.70;;;7.00;99.90;;;;;;6252161;22;20028;-75
2023/01/17 14:55:46;;;;;;;1.05;0.60;;;7.00;99.90;;;;;;6252055;22;20007;-75
2023/01/17 14:58:23;;;;;;;1.38;0.70;;;7.00;99.90;;;;;;6252261;22;20000;-75
2023/01/17 15:00:55;;;;;;;1.85;1.15;;;6.90;99.90;;;;;;6251805;22;20310;-75
2023/01/17 15:03:21;;;;;;;1.38;0.73;;;6.90;99.90;;;;;;6251521;22;20015;-75
2023/01/17 15:05:50;;;;;;;3.33;0.70;;;7.00;99.90;;;;;;6251962;22;20333;-75
2023/01/17 15:08:27;;;;;;;0.98;0.68;;;7.00;99.90;;;;;;6251912;22;20004;-75
2023/01/17 15:10:59;;;;;;;1.40;0.80;;;7.00;99.90;;;;;;6252154;22;20023;-75
2023/01/17 15:13:43;;;;;;;1.45;0.70;;;7.00;99.90;;;;;;6249685;23;20004;-75
2023/01/17 15:16:36;;;;;;;0.90;0.75;;;7.00;99.90;;;;;;6251771;23;20008;-75
2023/01/17 15:19:10;;;;;;;0.90;0.75;;;7.00;99.90;;;;;;6250083;23;20019;-76
2023/01/17 15:21:41;;;;;;;0.82;0.60;;;7.00;99.90;;;;;;6251825;22;20000;-76
2023/01/17 15:24:17;;;;;;;1.55;0.70;;;7.00;99.90;;;;;;6250061;23;20027;-76
2023/01/17 15:26:44;;;;;;;1.20;0.80;;;7.00;99.90;;;;;;6251584;22;20003;-76
2023/01/17 15:29:30;;;;;;;1.27;0.70;;;7.00;99.90;;;;;;6251638;22;20075;-75
2023/01/17 15:31:59;;;;;;;1.20;0.70;;;7.00;99.90;;;;;;6251493;23;20008;-76
2023/01/17 15:34:37;;;;;;;0.70;0.60;;;6.90;99.90;;;;;;6249691;23;20004;-75
2023/01/17 15:37:06;;;;;;;1.00;0.80;;;6.90;99.90;;;;;;6251491;22;20027;-76
2023/01/17 15:39:33;;;;;;;0.95;0.70;;;6.90;99.90;;;;;;6251311;22;20425;-76
2023/01/17 15:42:24;;;;;;;2.20;0.98;;;6.90;99.90;;;;;;6249603;23;20004;-76
2023/01/17 15:44:55;;;;;;;0.85;0.80;;;6.90;99.90;;;;;;6249645;23;20012;-76
2023/01/17 15:47:32;;;;;;;0.63;0.50;;;6.90;99.90;;;;;;6251141;22;20054;-76
2023/01/17 15:49:59;;;;;;;1.10;0.68;;;6.90;99.90;;;;;;6251398;22;20330;-76
2023/01/17 15:52:25;;;;;;;1.75;0.95;;;6.90;99.90;;;;;;6251670;22;20072;-76
2023/01/17 15:54:53;;;;;;;2.30;1.00;;;6.90;99.90;;;;;;6251215;22;20349;-76
2023/01/17 15:57:24;;;;;;;1.40;0.90;;;6.90;99.90;;;;;;6251149;22;20075;-75
2023/01/17 16:00:19;;;;;;;2.15;1.10;;;6.80;99.90;;;;;;6249304;23;20040;-76
2023/01/17 16:02:56;;;;;;;1.70;0.60;;;6.80;99.90;;;;;;6248743;23;20439;-76
2023/01/17 16:05:29;;;;;;;1.00;0.63;;;6.70;99.90;;;;;;6251117;22;20052;-77
2023/01/17 16:08:02;;;;;;;1.17;0.50;;;6.70;99.90;;;;;;6251220;22;19993;-76
2023/01/17 16:10:30;;;;;;;0.65;0.40;;;6.70;99.90;;;;;;6251046;22;20000;-76
2023/01/17 16:12:58;;;;;;;0.47;0.30;;;6.70;99.90;;;;;;6250102;23;20004;-76
2023/01/17 16:15:25;;;;;;;0.68;0.50;;;6.70;99.90;;;;;;6251008;22;20000;-76
2023/01/17 16:17:55;;;;;;;1.15;0.40;;;6.70;99.90;;;;;;6250639;22;20012;-75
2023/01/17 16:20:24;;;;;;;0.40;0.28;;;6.70;99.90;;;;;;6224181;23;20486;-76
2023/01/17 16:22:50;;;;;;;1.42;0.50;;;6.60;99.90;;;;;;6224066;23;20030;-76
2023/01/17 16:25:23;;;;;;;0.30;0.28;;;6.70;99.90;;;;;;6250817;23;19996;-75
2023/01/17 16:27:49;;;;;;;0.47;0.40;;;6.60;99.90;;;;;;6251218;23;20000;-75
2023/01/17 16:30:18;;;;;;;1.17;0.60;;;6.70;99.90;;;;;;6224137;23;20007;-75
2023/01/17 16:32:47;;;;;;;0.82;0.63;;;6.70;99.90;;;;;;6250794;23;20421;-76
2023/01/17 16:35:21;;;;;;;1.02;0.60;;;6.70;99.90;;;;;;6224011;23;20004;-76
2023/01/17 16:37:51;;;;;;;0.70;0.47;;;6.60;99.90;;;;;;6250928;23;20005;-76
2023/01/17 16:40:18;;;;;;;0.63;0.47;;;6.60;99.90;;;;;;6250958;23;20438;-76
2023/01/17 16:42:44;;;;;;;1.05;0.57;;;6.60;99.90;;;;;;6251097;23;20011;-76
2023/01/17 16:45:11;;;;;;;0.95;0.60;;;6.60;99.90;;;;;;6250807;23;20000;-76
2023/01/17 16:47:39;;;;;;;0.98;0.60;;;6.60;99.90;;;;;;6250384;23;19997;-75
2023/01/17 16:50:05;;;;;;;1.05;0.68;;;6.60;99.90;;;;;;6250715;23;20003;-76
2023/01/17 16:52:30;;;;;;;1.10;0.68;;;6.60;99.90;;;;;;6251185;23;20004;-76
2023/01/17 16:54:56;;;;;;;0.82;0.52;;;6.60;99.90;;;;;;6250630;23;20325;-76
2023/01/17 16:57:21;;;;;;;1.27;0.77;;;6.60;99.90;;;;;;6223776;23;20433;-75
2023/01/17 16:59:47;;;;;;;1.30;0.88;;;6.70;99.90;;;;;;6249642;23;20422;-72
2023/01/17 17:02:13;;;;;;;0.90;0.65;;;6.70;99.90;;;;;;6247027;23;20002;-80
2023/01/17 17:04:40;;;;;;;0.80;0.80;;;6.70;99.90;;;;;;6250239;23;20008;-75
2023/01/17 17:07:06;;;;;;;1.42;0.77;;;6.70;99.90;;;;;;6249313;23;20003;-76
2023/01/17 17:09:32;;;;;;;1.38;0.90;;;6.60;99.90;;;;;;6250633;23;20333;-75
2023/01/17 17:11:57;;;;;;;1.58;0.80;;;6.60;99.90;;;;;;6250090;23;20042;-76
2023/01/17 17:14:23;;;;;;;2.47;0.77;;;6.60;99.90;;;;;;6249734;23;20000;-74
2023/01/17 17:16:51;;;;;;;1.83;0.90;;;6.60;99.90;;;;;;6223400;23;20050;-74
2023/01/17 17:19:18;;;;;;;2.63;0.77;;;6.60;99.90;;;;;;6247932;23;20008;-74
2023/01/17 17:21:44;;;;;;;1.70;0.85;;;6.60;99.90;;;;;;6249897;22;20429;-74
2023/01/17 17:24:12;;;;;;;1.10;0.80;;;6.60;99.90;;;;;;6250349;23;20008;-74
2023/01/17 17:26:39;;;;;;;2.25;0.77;;;6.60;99.90;;;;;;6249874;22;20097;-74
2023/01/17 17:29:09;;;;;;;2.15;1.20;;;6.60;99.90;;;;;;6250557;22;19996;-75
2023/01/17 17:31:35;;;;;;;1.25;0.70;;;6.50;99.90;;;;;;6250362;22;20000;-75
2023/01/17 17:34:02;;;;;;;2.28;1.10;;;6.50;99.90;;;;;;6250089;22;20079;-73
2023/01/17 17:36:28;;;;;;;1.95;1.05;;;6.40;99.90;;;;;;6249029;23;20408;-74
2023/01/17 17:38:55;;;;;;;2.08;1.00;;;6.40;99.90;;;;;;6252086;22;20032;-73
2023/01/17 17:41:29;;;;;;;3.55;0.90;;;6.40;99.90;;;;;;6252345;22;20004;-73
2023/01/17 17:43:55;;;;;;;1.85;0.95;;;6.40;99.90;;;;;;6252727;22;20421;-73
2023/01/17 17:46:22;;;;;;;1.35;1.08;;;6.40;99.90;;;;;;6251967;22;20126;-72
2023/01/17 17:48:48;;;;;;;2.85;0.95;;;6.40;99.90;;;;;;6251882;22;20072;-73
2023/01/17 17:51:27;;;;;;;2.50;1.05;;;6.40;99.90;;;;;;6252372;22;20075;-76
2023/01/17 17:54:03;;;;;;;2.03;0.90;;;6.30;99.90;;;;;;6252432;22;20106;-76
2023/01/17 17:56:30;;;;;;;2.08;1.20;;;6.30;99.90;;;;;;6250421;23;20004;-75
2023/01/17 17:58:58;;;;;;;1.20;0.88;;;6.30;99.90;;;;;;6252346;22;20511;-75
2023/01/17 18:01:24;;;;;;;1.77;1.15;;;6.30;99.90;;;;;;6250140;23;20449;-80
2023/01/17 18:11:52;;;;;;;1.60;0.95;;;6.30;99.90;;;;;;6131353;23;20030;-84
2023/01/17 18:14:28;;;;;;;2.33;0.80;;;6.30;99.90;;;;;;6218548;23;20013;-85
2023/01/17 18:16:53;;;;;;;3.15;1.00;;;6.30;99.90;;;;;;6194853;23;20021;-84
2023/01/17 18:19:27;;;;;;;2.40;1.15;;;6.20;99.90;;;;;;6250427;23;20038;-86
2023/01/17 18:22:08;;;;;;;;;;;;;;;;;;;;;
2023/01/17 18:24:37;;;;;;;1.83;1.15;;;6.20;99.90;;;;;;6252728;23;20020;-88
2023/01/17 18:27:32;;;;;;;1.70;1.05;;;6.10;99.90;;;;;;6252198;22;20000;-88
2023/01/17 18:29:58;;;;;;;1.65;1.10;;;6.10;99.90;;;;;;6250429;23;20005;-84
2023/01/17 18:36:04;;;;;;;1.83;0.60;;;5.60;99.90;;;;;;6219503;23;20516;-87
2023/01/17 18:38:37;;;;;;;1.23;0.57;;;5.40;99.90;;;;;;6251489;22;20080;-86
2023/01/17 18:41:20;;;;;;;0.53;0.40;;;5.10;99.90;;;;;;6250041;23;20083;-84
2023/01/17 18:43:46;;;;;;;0.20;0.20;;;4.80;99.90;;;;;;6249970;23;20004;-87
2023/01/17 18:46:13;;;;;;;1.05;0.32;;;4.40;99.90;;;;;;6250104;23;20004;-80
2023/01/17 18:48:42;;;;;;;0.30;0.30;;;4.10;99.90;;;;;;6249376;23;20008;-81
2023/01/17 18:51:20;;;;;;;;;;;;;;;;;;;;;
2023/01/17 18:54:09;;;;;;;0.50;0.30;;;3.60;99.90;;;;;;6251257;23;20370;-80
2023/01/17 18:56:38;;;;;;;0.40;0.30;;;3.40;99.90;;;;;;6251960;23;20071;-80
2023/01/17 18:59:05;;;;;;;0.50;0.38;;;3.30;99.90;;;;;;6250514;23;20479;-84
2023/01/17 19:01:32;;;;;;;0.60;0.30;;;3.20;99.90;;;;;;6249719;23;20011;-81
2023/01/17 19:04:37;;;;;;;0.40;0.35;;;3.20;99.90;;;;;;6249065;23;20439;-81
2023/01/17 19:07:09;;;;;;;0.63;0.40;;;3.20;99.90;;;;;;6240081;23;20056;-80
2023/01/17 19:09:34;;;;;;;0.47;0.30;;;3.10;99.90;;;;;;6248944;23;20007;-82
2023/01/17 19:12:03;;;;;;;0.55;0.40;;;3.20;99.90;;;;;;6251006;22;20384;-81
2023/01/17 19:14:29;;;;;;;0.70;0.40;;;3.30;99.90;;;;;;6249422;23;20004;-83
2023/01/17 19:17:07;;;;;;;0.30;0.30;;;3.30;99.90;;;;;;6250725;22;20380;-81
2023/01/17 19:19:37;;;;;;;0.70;0.30;;;3.40;99.90;;;;;;6223989;23;20388;-79
2023/01/17 19:22:42;;;;;;;;;;;;;;;;;;;;;
2023/01/17 19:25:29;;;;;;;0.85;0.52;;;3.30;99.90;;;;;;6245508;23;20004;-82
2023/01/17 19:27:55;;;;;;;0.88;0.50;;;3.40;99.90;;;;;;6224063;23;20004;-79
2023/01/17 19:30:38;;;;;;;;;;;;;;;;;;;;;
2023/01/17 19:33:05;;;;;;;0.50;0.35;;;3.30;99.90;;;;;;6250341;23;20075;-79
2023/01/17 19:35:30;;;;;;;0.85;0.60;;;3.40;99.90;;;;;;6223661;23;20031;-80
2023/01/17 19:37:56;;;;;;;1.02;0.65;;;3.40;99.90;;;;;;6251400;23;19996;-79
2023/01/17 19:40:22;;;;;;;1.10;0.52;;;3.30;99.90;;;;;;6224240;23;20000;-83
2023/01/17 19:43:12;;;;;;;0.43;0.35;;;3.40;99.90;;;;;;6250698;23;20071;-84
2023/01/17 19:49:43;;;;;;;0.20;0.20;;;3.40;99.90;;;;;;6158346;23;20017;-85
2023/01/17 19:59:12;;;;;;;1.20;0.30;;;3.60;99.90;;;;;;6072586;23;20033;-82
2023/01/17 20:01:38;;;;;;;0.30;0.30;;;3.60;99.90;;;;;;6249215;23;20027;-80
2023/01/17 20:04:04;;;;;;;0.82;0.43;;;3.60;99.90;;;;;;6249114;23;20000;-82
2023/01/17 20:06:39;;;;;;;1.20;0.60;;;3.60;99.90;;;;;;6223447;23;20004;-85
2023/01/17 20:11:52;;;;;;;0.70;0.50;;;3.60;99.90;;;;;;6239611;23;20015;-81
2023/01/17 20:14:43;;;;;;;0.63;0.40;;;3.60;99.90;;;;;;6222355;23;20012;-81
2023/01/17 20:23:46;;;;;;;0.93;0.57;;;3.70;99.90;;;;;;6241030;22;20012;-80
2023/01/17 20:33:02;;;;;;;1.27;0.75;;;3.80;99.90;;;;;;6224149;23;20015;-79